createdAt,value
2018-08-03T00:00:21.230Z,57.23
2018-08-03T00:02:50.955Z,57.31
2018-08-03T00:05:20.204Z,57.13
2018-08-03T00:07:49.699Z,57.11
2018-08-03T00:10:19.364Z,57.10
2018-08-03T00:12:48.820Z,57.44
2018-08-03T00:15:18.517Z,58.15
2018-08-03T00:17:48.323Z,57.99
2018-08-03T00:20:18.050Z,58.27
2018-08-03T00:22:47.404Z,58.29
2018-08-03T00:25:16.973Z,58.49
2018-08-03T00:27:46.242Z,58.58
2018-08-03T00:30:15.972Z,58.77
2018-08-03T00:32:45.298Z,59.08
2018-08-03T00:35:14.559Z,59.02
2018-08-03T00:37:44.251Z,59.47
2018-08-03T00:40:13.871Z,59.69
2018-08-03T00:42:43.153Z,59.84
2018-08-03T00:45:12.414Z,59.73
2018-08-03T00:47:42.210Z,59.75
2018-08-03T00:50:11.467Z,59.69
2018-08-03T00:52:40.705Z,60.22
2018-08-03T00:55:09.987Z,60.14
2018-08-03T00:57:39.199Z,60.52
2018-08-03T01:00:09.292Z,60.86
2018-08-03T01:02:38.954Z,61.16
2018-08-03T01:05:08.263Z,61.47
2018-08-03T01:07:37.499Z,61.44
2018-08-03T01:10:07.074Z,61.37
2018-08-03T01:12:36.851Z,61.20
2018-08-03T01:15:06.728Z,61.76
2018-08-03T01:17:39.324Z,61.59
2018-08-03T01:20:08.983Z,61.51
2018-08-03T01:22:38.276Z,61.42
2018-08-03T01:25:07.787Z,61.40
2018-08-03T01:27:37.084Z,62.19
2018-08-03T01:30:06.745Z,62.48
2018-08-03T01:32:36.014Z,62.49
2018-08-03T01:35:05.310Z,62.54
2018-08-03T01:37:34.587Z,63.04
2018-08-03T01:40:04.252Z,62.85
2018-08-03T01:42:33.787Z,62.81
2018-08-03T01:45:03.056Z,61.78
2018-08-03T01:47:32.603Z,62.07
2018-08-03T01:50:02.180Z,62.00
2018-08-03T01:52:31.770Z,62.65
2018-08-03T01:55:01.394Z,63.25
2018-08-03T01:57:30.686Z,63.73
2018-08-03T01:59:59.932Z,62.84
2018-08-03T02:02:29.171Z,62.64
2018-08-03T02:04:59.022Z,61.85
2018-08-03T02:07:28.296Z,63.02
2018-08-03T02:09:58.662Z,63.92
2018-08-03T02:12:27.935Z,63.11
2018-08-03T02:14:57.230Z,63.16
2018-08-03T02:17:27.016Z,63.39
2018-08-03T02:19:56.302Z,63.07
2018-08-03T02:22:25.588Z,62.07
2018-08-03T02:24:56.075Z,62.53
2018-08-03T02:27:25.349Z,63.06
2018-08-03T02:29:55.038Z,63.19
2018-08-03T02:32:24.337Z,63.54
2018-08-03T02:34:53.616Z,63.78
2018-08-03T02:37:33.496Z,63.69
2018-08-03T02:40:02.746Z,64.80
2018-08-03T02:42:32.337Z,65.33
2018-08-03T02:45:01.696Z,66.01
2018-08-03T02:47:30.941Z,66.96
2018-08-03T02:50:00.277Z,67.14
2018-08-03T02:52:30.547Z,67.56
2018-08-03T02:54:59.817Z,67.56
2018-08-03T02:57:29.079Z,67.44
2018-08-03T02:59:58.367Z,67.92
2018-08-03T03:02:27.621Z,67.50
2018-08-03T03:04:56.843Z,67.80
2018-08-03T03:07:26.160Z,67.81
2018-08-03T03:09:55.352Z,67.96
2018-08-03T03:12:24.619Z,68.50
2018-08-03T03:14:53.898Z,68.32
2018-08-03T03:17:23.150Z,68.34
2018-08-03T03:19:53.245Z,68.55
2018-08-03T03:22:22.490Z,68.58
2018-08-03T03:24:52.109Z,68.30
2018-08-03T03:27:21.883Z,68.86
2018-08-03T03:29:51.550Z,68.65
2018-08-03T03:32:21.270Z,68.47
2018-08-03T03:34:51.006Z,68.44
2018-08-03T03:37:20.736Z,68.65
2018-08-03T03:39:49.979Z,68.60
2018-08-03T03:42:19.239Z,68.58
2018-08-03T03:44:48.540Z,68.60
2018-08-03T03:47:18.119Z,68.83
2018-08-03T03:49:47.440Z,68.68
2018-08-03T03:52:16.652Z,68.71
2018-08-03T03:54:45.686Z,68.30
2018-08-03T03:57:14.922Z,68.33
2018-08-03T03:59:44.284Z,68.12
2018-08-03T04:02:13.528Z,67.80
2018-08-03T04:04:42.879Z,67.86
2018-08-03T04:07:12.102Z,67.66
2018-08-03T04:09:41.334Z,67.48
2018-08-03T04:12:10.641Z,67.56
2018-08-03T04:14:39.902Z,68.11
2018-08-03T04:17:09.218Z,67.22
2018-08-03T04:19:39.140Z,66.94
2018-08-03T04:22:08.752Z,66.52
2018-08-03T04:24:38.041Z,66.60
2018-08-03T04:27:07.626Z,66.48
2018-08-03T04:29:36.967Z,65.67
2018-08-03T04:32:06.264Z,65.69
2018-08-03T04:34:35.844Z,65.32
2018-08-03T04:37:05.514Z,65.37
2018-08-03T04:39:34.741Z,64.98
2018-08-03T04:42:04.050Z,64.15
2018-08-03T04:44:33.546Z,63.62
2018-08-03T04:47:02.808Z,63.15
2018-08-03T04:49:32.063Z,63.07
2018-08-03T04:52:01.524Z,62.64
2018-08-03T04:54:30.778Z,62.45
2018-08-03T04:57:00.342Z,61.91
2018-08-03T04:59:29.609Z,61.50
2018-08-03T05:01:59.323Z,61.27
2018-08-03T05:04:28.571Z,60.82
2018-08-03T05:06:58.160Z,59.90
2018-08-03T05:09:27.364Z,59.54
2018-08-03T05:11:57.038Z,59.12
2018-08-03T05:14:26.323Z,59.39
2018-08-03T05:16:55.990Z,59.28
2018-08-03T05:19:26.118Z,58.93
2018-08-03T05:21:55.407Z,57.78
2018-08-03T05:24:24.690Z,57.62
2018-08-03T05:26:53.931Z,57.76
2018-08-03T05:29:23.937Z,57.50
2018-08-03T05:31:53.158Z,57.70
2018-08-03T05:34:22.714Z,56.71
2018-08-03T05:36:51.991Z,56.07
2018-08-03T05:39:21.260Z,55.80
2018-08-03T05:41:50.478Z,55.05
2018-08-03T05:44:19.747Z,54.04
2018-08-03T05:46:49.340Z,52.83
2018-08-03T05:49:18.770Z,52.42
2018-08-03T05:51:48.455Z,51.17
2018-08-03T05:54:18.135Z,50.84
2018-08-03T05:56:47.406Z,48.71
2018-08-03T05:59:17.069Z,47.05
2018-08-03T06:01:46.294Z,45.10
2018-08-03T06:04:15.862Z,43.73
2018-08-03T06:06:45.156Z,42.27
2018-08-03T06:09:14.398Z,40.99
2018-08-03T06:11:43.768Z,39.63
2018-08-03T06:14:13.038Z,33.81
2018-08-03T06:16:42.618Z,28.85
2018-08-03T06:19:12.509Z,28.09
2018-08-03T06:21:41.815Z,25.66
2018-08-03T06:24:11.326Z,25.48
2018-08-03T06:26:40.535Z,25.00
2018-08-03T06:29:10.003Z,23.95
2018-08-03T06:31:39.292Z,23.83
2018-08-03T06:34:08.539Z,23.52
2018-08-03T06:36:37.852Z,24.54
2018-08-03T06:39:09.570Z,28.37
2018-08-03T06:41:39.139Z,31.16
2018-08-03T06:44:08.413Z,32.37
2018-08-03T06:46:38.215Z,32.10
2018-08-03T06:49:07.758Z,32.67
2018-08-03T06:51:36.970Z,32.80
2018-08-03T06:54:06.309Z,33.02
2018-08-03T06:56:35.609Z,34.80
2018-08-03T06:59:04.987Z,34.56
2018-08-03T07:01:34.262Z,34.29
2018-08-03T07:04:03.891Z,34.52
2018-08-03T07:06:33.518Z,35.36
2018-08-03T07:09:02.798Z,34.98
2018-08-03T07:11:32.912Z,34.92
2018-08-03T07:14:02.177Z,34.47
2018-08-03T07:16:31.984Z,34.96
2018-08-03T07:19:01.563Z,34.58
2018-08-03T07:21:30.815Z,34.63
2018-08-03T07:24:00.105Z,35.21
2018-08-03T07:26:29.364Z,35.00
2018-08-03T07:28:58.595Z,35.03
2018-08-03T07:31:27.954Z,35.25
2018-08-03T07:33:57.233Z,35.31
2018-08-03T07:36:26.526Z,35.33
2018-08-03T07:38:56.251Z,34.75
2018-08-03T07:41:25.568Z,34.22
2018-08-03T07:43:54.787Z,34.42
2018-08-03T07:46:24.403Z,34.87
2018-08-03T07:48:53.991Z,34.20
2018-08-03T07:51:23.640Z,33.96
2018-08-03T07:53:52.903Z,34.65
2018-08-03T07:56:22.104Z,34.43
2018-08-03T07:58:51.367Z,34.21
2018-08-03T08:01:20.663Z,34.31
2018-08-03T08:03:49.936Z,33.72
2018-08-03T08:06:19.252Z,33.29
2018-08-03T08:08:48.855Z,34.01
2018-08-03T08:11:18.492Z,33.85
2018-08-03T08:13:47.776Z,33.52
2018-08-03T08:16:17.379Z,33.46
2018-08-03T08:18:47.838Z,33.17
2018-08-03T08:21:17.715Z,33.38
2018-08-03T08:23:47.030Z,33.68
2018-08-03T08:26:16.715Z,33.75
2018-08-03T08:28:45.992Z,33.02
2018-08-03T08:31:15.247Z,33.48
2018-08-03T08:33:44.535Z,33.07
2018-08-03T08:36:13.820Z,32.82
2018-08-03T08:38:43.094Z,32.51
2018-08-03T08:41:12.644Z,32.08
2018-08-03T08:43:44.551Z,32.46
2018-08-03T08:46:14.074Z,31.45
2018-08-03T08:48:43.355Z,31.34
2018-08-03T08:51:13.006Z,31.55
2018-08-03T08:53:42.289Z,30.74
2018-08-03T08:56:11.522Z,32.21
2018-08-03T08:58:41.217Z,30.96
2018-08-03T09:01:10.522Z,30.43
2018-08-03T09:03:40.134Z,29.65
2018-08-03T09:06:09.467Z,30.11
2018-08-03T09:08:38.667Z,29.31
2018-08-03T09:11:08.846Z,29.90
2018-08-03T09:13:38.079Z,28.82
2018-08-03T09:16:07.615Z,26.37
2018-08-03T09:18:36.943Z,24.22
2018-08-03T09:21:06.583Z,22.96
2018-08-03T09:23:35.860Z,21.93
2018-08-03T09:26:05.103Z,21.63
2018-08-03T09:28:34.422Z,20.91
2018-08-03T09:31:03.716Z,21.63
2018-08-03T09:33:33.798Z,20.90
2018-08-03T09:36:03.043Z,21.35
2018-08-03T09:38:32.248Z,20.88
2018-08-03T09:41:01.538Z,20.79
2018-08-03T09:43:30.635Z,20.83
2018-08-03T09:46:01.159Z,19.92
2018-08-03T09:48:30.442Z,21.13
2018-08-03T09:50:59.657Z,22.04
2018-08-03T09:53:29.616Z,21.24
2018-08-03T09:55:58.878Z,22.44
2018-08-03T09:58:28.155Z,21.96
2018-08-03T10:01:01.853Z,21.28
2018-08-03T10:03:31.589Z,20.87
2018-08-03T10:06:00.605Z,21.30
2018-08-03T10:08:30.742Z,20.82
2018-08-03T10:11:00.064Z,21.22
2018-08-03T10:13:29.739Z,20.57
2018-08-03T10:15:59.319Z,20.73
2018-08-03T10:18:28.677Z,21.17
2018-08-03T10:21:04.912Z,21.08
2018-08-03T10:23:34.159Z,20.74
2018-08-03T10:26:04.263Z,21.61
2018-08-03T10:28:33.815Z,21.06
2018-08-03T10:31:03.403Z,21.59
2018-08-03T10:33:32.685Z,22.87
2018-08-03T10:36:02.175Z,23.80
2018-08-03T10:38:32.078Z,26.64
2018-08-03T10:41:01.622Z,27.12
2018-08-03T10:43:31.064Z,28.12
2018-08-03T10:46:00.427Z,27.25
2018-08-03T10:48:30.427Z,28.51
2018-08-03T10:50:59.769Z,28.87
2018-08-03T10:53:29.094Z,29.00
2018-08-03T10:55:58.345Z,28.16
2018-08-03T10:58:27.972Z,27.90
2018-08-03T11:00:57.905Z,28.33
2018-08-03T11:03:27.159Z,28.70
2018-08-03T11:05:56.644Z,29.03
2018-08-03T11:08:26.730Z,28.77
2018-08-03T11:10:55.941Z,28.62
2018-08-03T11:13:25.197Z,28.72
2018-08-03T11:15:54.876Z,28.56
2018-08-03T11:18:24.104Z,29.37
2018-08-03T11:20:53.974Z,27.71
2018-08-03T11:23:23.644Z,27.20
2018-08-03T11:25:53.207Z,27.36
2018-08-03T11:28:22.896Z,26.61
2018-08-03T11:30:55.506Z,26.45
2018-08-03T11:33:25.407Z,26.01
2018-08-03T11:35:55.631Z,25.86
2018-08-03T11:38:25.262Z,24.67
2018-08-03T11:40:54.628Z,24.09
2018-08-03T11:43:23.977Z,24.58
2018-08-03T11:45:53.226Z,25.01
2018-08-03T11:48:22.571Z,25.63
2018-08-03T11:50:52.603Z,27.25
2018-08-03T11:53:21.920Z,26.77
2018-08-03T11:55:51.608Z,26.90
2018-08-03T11:58:20.866Z,28.44
2018-08-03T12:00:50.263Z,27.87
2018-08-03T12:03:19.838Z,27.41
2018-08-03T12:05:49.509Z,27.74
2018-08-03T12:08:18.740Z,27.85
2018-08-03T12:10:47.970Z,27.05
2018-08-03T12:13:17.236Z,27.85
2018-08-03T12:15:46.508Z,27.48
2018-08-03T12:18:16.665Z,27.80
2018-08-03T12:20:47.794Z,27.99
2018-08-03T12:23:17.133Z,28.07
2018-08-03T12:25:46.438Z,28.20
2018-08-03T12:28:15.688Z,28.05
2018-08-03T12:30:45.250Z,27.42
2018-08-03T12:33:14.459Z,28.41
2018-08-03T12:35:43.780Z,27.90
2018-08-03T12:38:13.720Z,27.27
2018-08-03T12:40:43.016Z,27.38
2018-08-03T12:43:12.367Z,26.99
2018-08-03T12:45:41.535Z,27.18
2018-08-03T12:48:11.123Z,25.75
2018-08-03T12:50:40.695Z,25.91
2018-08-03T12:53:09.994Z,26.64
2018-08-03T12:55:39.071Z,26.73
2018-08-03T12:58:08.693Z,26.45
2018-08-03T13:00:38.287Z,26.32
2018-08-03T13:03:07.996Z,25.64
2018-08-03T13:05:37.506Z,26.00
2018-08-03T13:08:07.356Z,25.68
2018-08-03T13:10:43.776Z,25.58
2018-08-03T13:13:13.289Z,25.55
2018-08-03T13:15:42.589Z,26.33
2018-08-03T13:18:11.912Z,25.68
2018-08-03T13:20:41.648Z,26.00
2018-08-03T13:23:11.051Z,26.00
2018-08-03T13:25:40.329Z,25.47
2018-08-03T13:28:10.057Z,25.17
2018-08-03T13:30:39.294Z,24.83
2018-08-03T13:33:09.134Z,25.27
2018-08-03T13:35:38.290Z,24.72
2018-08-03T13:38:07.972Z,25.05
2018-08-03T13:40:37.526Z,24.99
2018-08-03T13:43:07.338Z,24.71
2018-08-03T13:45:36.617Z,24.56
2018-08-03T13:48:05.881Z,24.68
2018-08-03T13:50:35.142Z,25.45
2018-08-03T13:53:04.464Z,25.82
2018-08-03T13:55:34.057Z,25.74
2018-08-03T13:58:03.670Z,25.27
2018-08-03T14:00:32.936Z,25.80
2018-08-03T14:03:02.240Z,25.44
2018-08-03T14:05:31.574Z,26.23
2018-08-03T14:08:00.838Z,25.81
2018-08-03T14:10:30.507Z,26.24
2018-08-03T14:12:59.758Z,25.58
2018-08-03T14:15:29.040Z,26.06
2018-08-03T14:17:58.328Z,25.70
2018-08-03T14:20:27.578Z,25.82
2018-08-03T14:22:57.232Z,26.44
2018-08-03T14:25:26.548Z,26.21
2018-08-03T14:27:55.754Z,25.63
2018-08-03T14:30:24.980Z,26.05
2018-08-03T14:32:54.539Z,26.36
2018-08-03T14:35:24.157Z,26.17
2018-08-03T14:37:53.397Z,26.53
2018-08-03T14:40:22.632Z,26.67
2018-08-03T14:42:52.208Z,27.03
2018-08-03T14:45:21.874Z,26.46
2018-08-03T14:47:51.123Z,26.33
2018-08-03T14:50:20.641Z,26.39
2018-08-03T14:52:50.291Z,26.22
2018-08-03T14:55:19.505Z,26.44
2018-08-03T14:57:48.751Z,27.07
2018-08-03T15:00:18.316Z,26.86
2018-08-03T15:02:47.882Z,26.50
2018-08-03T15:05:17.143Z,26.39
2018-08-03T15:07:47.100Z,26.20
2018-08-03T15:10:16.682Z,25.87
2018-08-03T15:12:45.947Z,26.60
2018-08-03T15:15:15.482Z,25.99
2018-08-03T15:17:44.755Z,26.17
2018-08-03T15:20:14.143Z,26.45
2018-08-03T15:22:43.858Z,26.69
2018-08-03T15:25:13.167Z,26.50
2018-08-03T15:27:42.433Z,25.95
2018-08-03T15:30:12.352Z,26.02
2018-08-03T15:32:41.599Z,26.84
2018-08-03T15:35:10.813Z,27.04
2018-08-03T15:37:40.104Z,27.52
2018-08-03T15:40:09.376Z,27.62
2018-08-03T15:42:38.878Z,27.11
2018-08-03T15:45:09.111Z,27.29
2018-08-03T15:47:38.324Z,27.59
2018-08-03T15:50:07.771Z,26.97
2018-08-03T15:52:37.020Z,27.55
2018-08-03T15:55:06.336Z,27.74
2018-08-03T15:57:35.777Z,27.76
2018-08-03T16:00:06.610Z,28.34
2018-08-03T16:02:35.874Z,27.54
2018-08-03T16:05:05.408Z,28.01
2018-08-03T16:07:34.626Z,28.05
2018-08-03T16:10:03.864Z,27.97
2018-08-03T16:12:33.577Z,27.94
2018-08-03T16:15:03.063Z,28.04
2018-08-03T16:17:32.390Z,27.93
2018-08-03T16:20:02.043Z,28.17
2018-08-03T16:22:31.387Z,27.94
2018-08-03T16:25:01.108Z,27.66
2018-08-03T16:27:30.374Z,27.94
2018-08-03T16:30:00.295Z,27.88
2018-08-03T16:32:29.575Z,27.89
2018-08-03T16:34:59.272Z,27.24
2018-08-03T16:37:28.974Z,27.53
2018-08-03T16:39:58.227Z,26.91
2018-08-03T16:42:27.895Z,27.27
2018-08-03T16:44:57.544Z,28.12
2018-08-03T16:47:27.186Z,28.13
2018-08-03T16:49:56.402Z,28.36
2018-08-03T16:52:26.157Z,28.78
2018-08-03T16:54:55.784Z,28.79
2018-08-03T16:57:25.083Z,29.27
2018-08-03T16:59:54.754Z,29.20
2018-08-03T17:02:24.220Z,28.95
2018-08-03T17:04:53.496Z,28.81
2018-08-03T17:07:23.075Z,29.64
2018-08-03T17:09:52.691Z,29.23
2018-08-03T17:12:21.990Z,29.18
2018-08-03T17:14:51.360Z,29.08
2018-08-03T17:17:20.590Z,28.83
2018-08-03T17:19:49.839Z,29.04
2018-08-03T17:22:19.108Z,29.59
2018-08-03T17:24:48.730Z,29.55
2018-08-03T17:27:18.315Z,30.48
2018-08-03T17:29:48.215Z,30.16
2018-08-03T17:32:17.455Z,29.88
2018-08-03T17:34:46.684Z,30.03
2018-08-03T17:37:15.959Z,30.67
2018-08-03T17:39:45.235Z,30.71
2018-08-03T17:42:14.225Z,29.86
2018-08-03T17:44:43.924Z,31.03
2018-08-03T17:47:13.548Z,30.83
2018-08-03T17:49:42.811Z,31.02
2018-08-03T17:52:12.359Z,31.06
2018-08-03T17:54:41.618Z,31.48
2018-08-03T17:57:11.214Z,31.76
2018-08-03T17:59:40.644Z,32.17
2018-08-03T18:02:09.905Z,33.40
2018-08-03T18:04:39.173Z,34.62
2018-08-03T18:07:08.792Z,34.81
2018-08-03T18:09:38.055Z,35.02
2018-08-03T18:12:07.514Z,35.18
2018-08-03T18:14:36.791Z,35.85
2018-08-03T18:17:06.358Z,36.53
2018-08-03T18:19:35.891Z,35.21
2018-08-03T18:22:05.128Z,35.28
2018-08-03T18:24:34.395Z,34.19
2018-08-03T18:27:03.946Z,33.94
2018-08-03T18:29:33.163Z,35.15
2018-08-03T18:32:02.836Z,35.08
2018-08-03T18:34:32.100Z,35.98
2018-08-03T18:37:01.347Z,37.05
2018-08-03T18:39:30.570Z,38.03
2018-08-03T18:42:00.324Z,38.63
2018-08-03T18:44:29.613Z,39.35
2018-08-03T18:46:58.935Z,39.71
2018-08-03T18:49:28.216Z,41.04
2018-08-03T18:51:58.146Z,41.96
2018-08-03T18:54:27.394Z,42.68
2018-08-03T18:56:57.675Z,42.72
2018-08-03T18:59:26.906Z,43.55
2018-08-03T19:01:56.727Z,43.92
2018-08-03T19:04:25.964Z,43.77
2018-08-03T19:06:55.986Z,43.77
2018-08-03T19:09:25.258Z,44.27
2018-08-03T19:11:55.479Z,44.96
2018-08-03T19:14:25.628Z,45.46
2018-08-03T19:16:54.869Z,44.52
2018-08-03T19:19:25.008Z,40.17
2018-08-03T19:21:54.370Z,39.53
2018-08-03T19:24:23.564Z,39.16
2018-08-03T19:26:52.829Z,38.76
2018-08-03T19:29:22.054Z,39.00
2018-08-03T19:31:51.388Z,38.72
2018-08-03T19:34:20.566Z,38.83
2018-08-03T19:36:49.860Z,38.41
2018-08-03T19:39:19.157Z,38.81
2018-08-03T19:41:48.420Z,38.98
2018-08-03T19:44:17.989Z,38.56
2018-08-03T19:46:47.689Z,38.91
2018-08-03T19:49:17.253Z,38.71
2018-08-03T19:51:46.523Z,39.30
2018-08-03T19:54:16.526Z,38.79
2018-08-03T19:56:46.273Z,39.24
2018-08-03T19:59:15.999Z,39.21
2018-08-03T20:01:45.007Z,39.25
2018-08-03T20:04:14.263Z,39.26
2018-08-03T20:06:44.035Z,39.89
2018-08-03T20:09:13.710Z,39.85
2018-08-03T20:11:43.424Z,39.78
2018-08-03T20:14:12.679Z,39.76
2018-08-03T20:16:41.968Z,40.02
2018-08-03T20:19:11.240Z,40.26
2018-08-03T20:21:40.675Z,40.36
2018-08-03T20:24:09.913Z,40.16
2018-08-03T20:26:39.138Z,40.65
2018-08-03T20:29:08.425Z,40.37
2018-08-03T20:31:37.729Z,40.62
2018-08-03T20:34:07.250Z,40.85
2018-08-03T20:36:36.522Z,40.96
2018-08-03T20:39:09.107Z,40.63
2018-08-03T20:41:38.425Z,40.50
2018-08-03T20:44:07.708Z,40.79
2018-08-03T20:46:36.981Z,40.78
2018-08-03T20:49:06.608Z,40.92
2018-08-03T20:51:35.928Z,40.93
2018-08-03T20:54:05.162Z,41.19
2018-08-03T20:56:34.456Z,41.56
2018-08-03T20:59:03.751Z,41.06
2018-08-03T21:01:33.378Z,41.67
2018-08-03T21:04:02.694Z,41.39
2018-08-03T21:06:31.972Z,41.46
2018-08-03T21:09:01.230Z,41.79
2018-08-03T21:11:30.531Z,42.03
2018-08-03T21:13:59.758Z,41.79
2018-08-03T21:16:29.422Z,41.68
2018-08-03T21:18:58.973Z,42.02
2018-08-03T21:21:28.884Z,42.09
2018-08-03T21:23:58.590Z,41.81
2018-08-03T21:26:28.563Z,42.18
2018-08-03T21:28:57.841Z,42.46
2018-08-03T21:31:27.949Z,42.28
2018-08-03T21:33:57.806Z,42.40
2018-08-03T21:36:27.297Z,42.86
2018-08-03T21:38:56.973Z,42.77
2018-08-03T21:41:26.506Z,42.77
2018-08-03T21:43:56.131Z,42.89
2018-08-03T21:46:25.360Z,43.30
2018-08-03T21:48:54.635Z,43.18
2018-08-03T21:51:23.907Z,43.13
2018-08-03T21:53:53.520Z,42.71
2018-08-03T21:56:23.210Z,42.91
2018-08-03T21:58:52.533Z,42.92
2018-08-03T22:01:22.208Z,43.12
2018-08-03T22:03:51.495Z,43.34
2018-08-03T22:06:20.806Z,43.22
2018-08-03T22:08:50.033Z,43.55
2018-08-03T22:11:19.307Z,43.39
2018-08-03T22:13:48.591Z,43.61
2018-08-03T22:16:17.887Z,43.50
2018-08-03T22:18:47.571Z,43.96
2018-08-03T22:21:16.608Z,43.62
2018-08-03T22:23:45.842Z,43.87
2018-08-03T22:26:15.098Z,43.42
2018-08-03T22:28:44.735Z,43.36
2018-08-03T22:31:14.026Z,43.15
2018-08-03T22:33:43.325Z,43.28
2018-08-03T22:36:12.708Z,42.98
2018-08-03T22:38:42.023Z,43.04
2018-08-03T22:41:11.259Z,42.67
2018-08-03T22:43:40.946Z,42.46
2018-08-03T22:46:10.209Z,43.14
2018-08-03T22:48:39.496Z,42.95
2018-08-03T22:51:09.222Z,42.83
2018-08-03T22:53:38.764Z,42.66
2018-08-03T22:56:08.819Z,42.86
2018-08-03T22:58:38.084Z,43.15
2018-08-03T23:01:07.689Z,42.72
2018-08-03T23:03:37.770Z,43.25
2018-08-03T23:06:07.705Z,43.50
2018-08-03T23:08:36.973Z,43.30
2018-08-03T23:11:06.198Z,43.07
2018-08-03T23:13:35.417Z,43.14
2018-08-03T23:16:04.725Z,42.93
2018-08-03T23:18:34.244Z,43.36
2018-08-03T23:21:03.964Z,43.19
2018-08-03T23:23:33.267Z,42.47
2018-08-03T23:26:02.541Z,42.68
2018-08-03T23:28:31.889Z,42.74
2018-08-03T23:31:01.625Z,42.52
2018-08-03T23:33:30.870Z,42.92
2018-08-03T23:36:00.447Z,42.49
2018-08-03T23:38:30.016Z,42.79
2018-08-03T23:40:59.570Z,43.05
2018-08-03T23:43:29.014Z,43.41
2018-08-03T23:45:58.243Z,43.89
2018-08-03T23:48:27.771Z,45.70
2018-08-03T23:50:57.040Z,47.09
2018-08-03T23:53:26.751Z,47.07
2018-08-03T23:55:56.452Z,46.11
2018-08-03T23:58:26.140Z,44.96
